Time;durP1;ratioP1;P1;durP2;ratioP2;P2;SDS_P1;SDS_P2;PMS_P1;PMS_P2;Temp;Humidity;BMP_temperature;BMP_pressure;BME280_temperature;BME280_humidity;BME280_pressure;Samples;Min_cycle;Max_cycle;Signal;HPM_P1;HPM_P2
2023/03/19 00:00:53;;;;;;;7.18;5.03;;;10.40;99.90;;;;;;4707949;28;10000417;-71
2023/03/19 00:03:25;;;;;;;7.75;4.80;;;10.40;99.90;;;;;;5059230;28;20083;-72
2023/03/19 00:05:56;;;;;;;6.70;5.00;;;10.40;99.90;;;;;;5053773;28;20029;-71
2023/03/19 00:08:29;;;;;;;8.68;4.60;;;10.40;99.90;;;;;;5051937;28;20534;-72
2023/03/19 00:11:04;;;;;;;5.45;4.40;;;10.40;99.90;;;;;;5066150;28;20082;-72
2023/03/19 00:13:37;;;;;;;7.25;5.25;;;10.40;99.90;;;;;;5046121;28;20021;-72
2023/03/19 00:16:10;;;;;;;6.13;4.63;;;10.30;99.90;;;;;;5046518;28;20029;-72
2023/03/19 00:18:46;;;;;;;7.20;5.43;;;10.30;99.90;;;;;;5064122;28;20436;-71
2023/03/19 00:21:20;;;;;;;8.20;5.72;;;10.30;99.90;;;;;;5053969;28;20032;-71
2023/03/19 00:23:56;;;;;;;7.05;5.22;;;10.30;99.90;;;;;;5058731;28;20041;-71
2023/03/19 00:26:30;;;;;;;6.70;4.95;;;10.30;99.90;;;;;;5052306;28;20059;-72
2023/03/19 00:29:02;;;;;;;8.07;6.10;;;10.20;99.90;;;;;;5046246;28;20044;-71
2023/03/19 00:31:39;;;;;;;8.82;6.18;;;10.20;99.90;;;;;;5045845;28;20044;-71
2023/03/19 00:34:12;;;;;;;8.70;6.10;;;10.20;99.90;;;;;;5051521;28;20548;-71
2023/03/19 00:36:44;;;;;;;8.98;6.30;;;10.20;99.90;;;;;;5055958;28;20290;-72
2023/03/19 00:39:18;;;;;;;8.65;6.32;;;10.20;99.90;;;;;;5055689;28;20112;-71
2023/03/19 00:41:49;;;;;;;11.68;6.65;;;10.10;99.90;;;;;;5061401;28;20038;-71
2023/03/19 00:44:20;;;;;;;9.48;7.25;;;10.10;99.90;;;;;;5061089;28;20067;-71
2023/03/19 00:46:56;;;;;;;10.35;7.88;;;10.10;99.90;;;;;;5046485;28;20047;-71
2023/03/19 00:49:25;;;;;;;10.60;7.93;;;10.10;99.90;;;;;;5044832;28;20064;-71
2023/03/19 00:51:56;;;;;;;13.02;8.60;;;10.10;99.90;;;;;;5060314;28;20139;-71
2023/03/19 00:54:31;;;;;;;12.77;8.88;;;10.10;99.90;;;;;;5011874;28;20060;-71
2023/03/19 00:57:03;;;;;;;13.32;9.38;;;10.10;99.90;;;;;;5020448;28;20092;-71
2023/03/19 00:59:40;;;;;;;15.57;9.63;;;10.00;99.90;;;;;;5022233;28;20434;-71
2023/03/19 01:02:11;;;;;;;17.35;10.10;;;10.00;99.90;;;;;;5011024;28;20057;-71
2023/03/19 01:04:44;;;;;;;12.73;9.55;;;10.00;99.90;;;;;;5012859;28;20026;-71
2023/03/19 01:07:12;;;;;;;12.38;10.15;;;9.90;99.90;;;;;;5013913;28;20030;-72
2023/03/19 01:09:46;;;;;;;13.30;9.45;;;9.90;99.90;;;;;;5020343;28;20132;-71
2023/03/19 01:12:20;;;;;;;13.60;9.85;;;9.90;99.90;;;;;;5015772;28;20033;-71
2023/03/19 01:14:56;;;;;;;14.73;10.32;;;9.90;99.90;;;;;;5016830;28;20038;-71
2023/03/19 01:17:29;;;;;;;11.82;9.88;;;9.90;99.90;;;;;;5015323;28;20478;-72
2023/03/19 01:20:03;;;;;;;12.82;9.50;;;9.80;99.90;;;;;;5008757;28;20108;-72
2023/03/19 01:22:37;;;;;;;12.05;8.88;;;9.90;99.90;;;;;;5016536;28;20386;-71
2023/03/19 01:25:12;;;;;;;11.43;8.27;;;9.80;99.90;;;;;;5020189;28;20033;-72
2023/03/19 01:27:46;;;;;;;12.20;9.02;;;9.80;99.90;;;;;;5014474;28;20025;-72
2023/03/19 01:30:20;;;;;;;13.25;9.10;;;9.90;99.90;;;;;;5010932;28;20029;-72
2023/03/19 01:32:52;;;;;;;11.88;9.20;;;9.80;99.90;;;;;;5013532;28;20029;-71
2023/03/19 01:35:26;;;;;;;17.33;9.05;;;9.80;99.90;;;;;;5011098;28;20053;-72
2023/03/19 01:38:01;;;;;;;13.80;9.80;;;9.80;99.90;;;;;;5011183;28;20065;-72
2023/03/19 01:40:31;;;;;;;11.60;8.75;;;9.80;99.90;;;;;;5022328;28;20037;-72
2023/03/19 01:43:22;;;;;;;12.68;8.95;;;9.80;99.90;;;;;;5013081;28;20092;-71
2023/03/19 01:45:56;;;;;;;16.30;8.88;;;9.80;99.90;;;;;;5013520;28;20042;-71
2023/03/19 01:48:36;;;;;;;15.50;8.82;;;9.80;99.90;;;;;;5018075;28;20042;-72
2023/03/19 01:51:08;;;;;;;11.02;8.00;;;9.90;99.90;;;;;;5020111;28;20044;-71
2023/03/19 01:53:46;;;;;;;13.50;7.78;;;10.00;99.90;;;;;;5048362;28;20139;-71
2023/03/19 01:56:25;;;;;;;12.38;8.43;;;10.00;99.90;;;;;;5060479;28;20111;-71
2023/03/19 01:58:57;;;;;;;12.02;8.20;;;10.00;99.90;;;;;;5044190;28;20025;-71
2023/03/19 02:01:32;;;;;;;13.10;7.20;;;9.90;99.90;;;;;;5042097;28;20048;-71
2023/03/19 02:04:09;;;;;;;10.65;7.18;;;9.90;99.90;;;;;;5049947;28;20075;-71
2023/03/19 02:06:45;;;;;;;10.38;7.10;;;9.90;99.90;;;;;;5059591;28;20033;-72
2023/03/19 02:09:20;;;;;;;9.60;6.90;;;9.80;99.90;;;;;;5055190;28;20083;-71
2023/03/19 02:11:56;;;;;;;7.80;6.03;;;9.80;99.90;;;;;;5041944;28;20437;-71
2023/03/19 02:14:27;;;;;;;9.05;6.45;;;9.80;99.90;;;;;;5055747;28;20029;-71
2023/03/19 02:17:01;;;;;;;7.57;5.97;;;9.80;99.90;;;;;;5053457;28;20040;-71
2023/03/19 02:19:36;;;;;;;8.57;5.47;;;9.80;99.90;;;;;;5038579;28;20113;-72
2023/03/19 02:22:11;;;;;;;8.70;5.63;;;9.80;99.90;;;;;;5050248;28;20086;-71
2023/03/19 02:25:01;;;;;;;7.03;5.15;;;9.80;99.90;;;;;;5061993;28;20509;-71
2023/03/19 02:27:27;;;;;;;6.80;5.00;;;9.80;99.90;;;;;;5056225;28;20405;-72
2023/03/19 02:29:57;;;;;;;7.15;5.28;;;9.80;99.90;;;;;;5048371;28;20036;-71
2023/03/19 02:32:27;;;;;;;7.30;4.93;;;9.70;99.90;;;;;;5044360;28;20031;-71
2023/03/19 02:35:00;;;;;;;8.13;5.05;;;9.70;99.90;;;;;;5059422;28;20094;-71
2023/03/19 02:37:32;;;;;;;8.43;5.40;;;9.70;99.90;;;;;;5054241;28;20125;-72
2023/03/19 02:40:06;;;;;;;8.75;5.18;;;9.70;99.90;;;;;;5056837;28;20429;-72
2023/03/19 02:42:34;;;;;;;8.18;5.15;;;9.70;99.90;;;;;;5058069;28;20041;-72
2023/03/19 02:45:06;;;;;;;9.15;5.45;;;9.70;99.90;;;;;;5056329;28;20099;-72
2023/03/19 02:47:34;;;;;;;8.30;5.53;;;9.70;99.90;;;;;;5060596;28;20049;-72
2023/03/19 02:50:01;;;;;;;7.80;5.63;;;9.70;99.90;;;;;;5046610;28;20470;-71
2023/03/19 02:52:32;;;;;;;9.70;5.95;;;9.70;99.90;;;;;;5051364;28;20048;-71
2023/03/19 02:55:06;;;;;;;7.88;5.68;;;9.60;99.90;;;;;;5055912;28;20100;-72
2023/03/19 02:57:37;;;;;;;8.80;5.15;;;9.60;99.90;;;;;;5064264;28;20074;-72
2023/03/19 03:00:10;;;;;;;8.10;5.43;;;9.60;99.90;;;;;;5042187;28;20037;-71
2023/03/19 03:02:39;;;;;;;8.70;5.93;;;9.60;99.90;;;;;;5045972;28;20025;-71
2023/03/19 03:05:13;;;;;;;7.38;5.28;;;9.60;99.90;;;;;;5057822;28;20036;-71
2023/03/19 03:07:43;;;;;;;7.78;5.10;;;9.60;99.90;;;;;;5041582;28;20060;-71
2023/03/19 03:10:18;;;;;;;8.02;5.47;;;9.60;99.90;;;;;;5044825;28;20167;-71
2023/03/19 03:12:52;;;;;;;6.90;5.50;;;9.60;99.90;;;;;;5052974;28;20020;-71
2023/03/19 03:15:24;;;;;;;7.70;5.70;;;9.60;99.90;;;;;;5064976;28;20067;-71
2023/03/19 03:17:56;;;;;;;9.30;5.95;;;9.50;99.90;;;;;;5054131;28;20032;-71
2023/03/19 03:20:34;;;;;;;9.73;6.18;;;9.50;99.90;;;;;;5049346;28;20037;-71
2023/03/19 03:23:13;;;;;;;11.68;7.65;;;9.50;99.90;;;;;;5053238;28;20368;-71
2023/03/19 03:25:39;;;;;;;13.35;8.98;;;9.50;99.90;;;;;;5051235;28;20404;-71
2023/03/19 03:28:05;;;;;;;13.25;9.50;;;9.50;99.90;;;;;;5050797;28;20032;-71
2023/03/19 03:30:32;;;;;;;16.23;10.75;;;9.40;99.90;;;;;;5038171;28;20505;-71
2023/03/19 03:33:04;;;;;;;17.80;11.45;;;9.40;99.90;;;;;;5046046;28;20456;-72
2023/03/19 03:35:31;;;;;;;16.02;11.38;;;9.40;99.90;;;;;;5041611;28;20301;-71
2023/03/19 03:38:03;;;;;;;26.45;12.93;;;9.30;99.90;;;;;;5045797;28;20033;-72
2023/03/19 03:40:39;;;;;;;17.75;12.77;;;9.30;99.90;;;;;;5041575;28;20072;-71
2023/03/19 03:43:05;;;;;;;18.50;13.02;;;9.20;99.90;;;;;;5038941;28;20559;-71
2023/03/19 03:45:37;;;;;;;19.23;13.30;;;9.20;99.90;;;;;;5040412;28;20564;-71
2023/03/19 03:48:06;;;;;;;19.10;13.88;;;9.10;99.90;;;;;;5055687;28;20120;-70
2023/03/19 03:50:39;;;;;;;18.02;13.00;;;9.10;99.90;;;;;;5057744;28;20021;-70
2023/03/19 03:53:18;;;;;;;17.80;13.80;;;9.10;99.90;;;;;;5054421;28;20059;-70
2023/03/19 03:55:47;;;;;;;18.33;13.57;;;9.10;99.90;;;;;;5054814;28;20396;-71
2023/03/19 03:58:18;;;;;;;19.55;14.38;;;9.10;99.90;;;;;;5048087;28;20059;-71
2023/03/19 04:00:53;;;;;;;17.75;13.10;;;9.10;99.90;;;;;;5040625;28;20457;-71
2023/03/19 04:03:26;;;;;;;19.23;12.77;;;9.10;99.90;;;;;;5059643;28;20072;-71
2023/03/19 04:05:59;;;;;;;17.55;12.25;;;9.20;99.90;;;;;;5060312;28;20025;-71
2023/03/19 04:08:34;;;;;;;16.35;11.10;;;9.20;99.90;;;;;;5052649;28;20393;-71
2023/03/19 04:11:11;;;;;;;13.13;10.20;;;9.30;99.90;;;;;;5044341;28;20039;-71
2023/03/19 04:13:44;;;;;;;15.10;9.65;;;9.30;99.90;;;;;;5056463;28;20052;-71
2023/03/19 04:16:17;;;;;;;;;;;9.30;99.90;;;;;;5061653;28;20032;-71
2023/03/19 04:18:48;;;;;;;12.80;8.82;;;9.30;99.90;;;;;;5048678;28;20003;-70
2023/03/19 04:21:28;;;;;;;13.23;8.70;;;9.30;99.90;;;;;;5062594;28;20038;-71
2023/03/19 04:24:01;;;;;;;14.48;8.43;;;9.30;99.90;;;;;;5055333;28;20503;-71
2023/03/19 04:26:31;;;;;;;12.82;8.00;;;9.40;99.90;;;;;;5054884;28;20031;-70
2023/03/19 04:29:05;;;;;;;10.25;7.63;;;9.40;99.90;;;;;;5041782;28;20444;-71
2023/03/19 04:31:41;;;;;;;10.90;7.90;;;9.40;99.90;;;;;;5065631;28;20673;-71
2023/03/19 04:34:13;;;;;;;12.10;7.85;;;9.40;99.90;;;;;;5054664;28;20112;-71
2023/03/19 04:36:43;;;;;;;13.48;8.48;;;9.40;99.90;;;;;;5055655;28;20241;-71
2023/03/19 04:39:17;;;;;;;14.98;9.73;;;9.40;99.90;;;;;;5051652;28;20044;-71
2023/03/19 04:41:46;;;;;;;15.13;9.93;;;9.30;99.90;;;;;;5054898;28;20033;-71
2023/03/19 04:44:23;;;;;;;14.43;10.35;;;9.30;99.90;;;;;;5056074;28;20024;-70
2023/03/19 04:46:49;;;;;;;14.73;10.75;;;9.30;99.90;;;;;;5045777;28;20451;-71
2023/03/19 04:49:24;;;;;;;12.82;9.98;;;9.30;99.90;;;;;;5050871;28;20017;-71
2023/03/19 04:51:51;;;;;;;12.50;9.40;;;9.20;99.90;;;;;;5040820;28;20032;-71
2023/03/19 04:54:17;;;;;;;13.30;9.32;;;9.20;99.90;;;;;;5038567;28;20060;-71
2023/03/19 04:56:43;;;;;;;12.48;9.25;;;9.20;99.90;;;;;;5038240;28;20466;-71
2023/03/19 04:59:12;;;;;;;14.27;9.70;;;9.20;99.90;;;;;;5048113;28;20039;-71
2023/03/19 05:01:40;;;;;;;11.80;9.48;;;9.20;99.90;;;;;;5038695;28;20064;-71
2023/03/19 05:04:12;;;;;;;12.77;9.40;;;9.20;99.90;;;;;;5048715;28;20078;-71
2023/03/19 05:06:38;;;;;;;16.67;11.50;;;9.10;99.90;;;;;;5048588;28;20029;-71
2023/03/19 05:09:06;;;;;;;15.15;11.15;;;9.10;99.90;;;;;;5043062;28;20445;-70
2023/03/19 05:11:40;;;;;;;16.15;10.80;;;9.10;99.90;;;;;;5045892;28;20099;-70
2023/03/19 05:14:07;;;;;;;11.70;9.73;;;9.10;99.90;;;;;;5047064;28;20033;-70
2023/03/19 05:16:44;;;;;;;13.10;9.88;;;9.10;99.90;;;;;;5048603;28;20028;-70
2023/03/19 05:19:17;;;;;;;12.82;9.30;;;9.10;99.90;;;;;;5045352;28;20063;-70
2023/03/19 05:21:49;;;;;;;;;;;9.10;99.90;;;;;;5048665;28;20120;-69
2023/03/19 05:24:23;;;;;;;12.10;9.82;;;9.10;99.90;;;;;;5048236;28;19909;-70
2023/03/19 05:26:55;;;;;;;10.50;9.18;;;9.10;99.90;;;;;;5048749;28;20036;-70
2023/03/19 05:29:23;;;;;;;17.75;11.43;;;9.10;99.90;;;;;;5043655;28;20064;-70
2023/03/19 05:32:01;;;;;;;13.63;10.63;;;9.10;99.90;;;;;;5033470;28;20039;-70
2023/03/19 05:34:36;;;;;;;11.95;9.55;;;9.10;99.90;;;;;;5048084;28;20465;-70
2023/03/19 05:37:05;;;;;;;17.33;13.02;;;9.00;99.90;;;;;;5033761;28;20025;-70
2023/03/19 05:39:44;;;;;;;24.98;16.67;;;9.10;99.90;;;;;;5028721;28;20022;-69
2023/03/19 05:42:14;;;;;;;22.80;17.42;;;9.10;99.90;;;;;;5045816;28;20091;-69
2023/03/19 05:44:48;;;;;;;17.98;13.10;;;9.00;99.90;;;;;;5047985;28;20025;-69
2023/03/19 05:47:16;;;;;;;19.58;13.80;;;9.00;99.90;;;;;;5047986;28;20029;-69
2023/03/19 05:49:50;;;;;;;18.77;12.50;;;9.10;99.90;;;;;;5048747;28;20108;-70
2023/03/19 05:52:18;;;;;;;18.10;13.32;;;9.10;99.90;;;;;;5045256;28;20223;-70
2023/03/19 05:54:52;;;;;;;19.10;14.07;;;9.20;99.90;;;;;;5029326;28;20029;-70
2023/03/19 05:57:20;;;;;;;18.08;13.30;;;9.20;99.90;;;;;;5028280;28;20037;-70
2023/03/19 05:59:56;;;;;;;19.77;13.88;;;9.10;99.90;;;;;;5043878;28;20052;-70
2023/03/19 06:02:23;;;;;;;22.23;14.82;;;9.10;99.90;;;;;;5048093;28;20510;-70
2023/03/19 06:04:56;;;;;;;20.17;13.57;;;9.10;99.90;;;;;;5048148;28;20025;-70
2023/03/19 06:07:21;;;;;;;17.95;13.68;;;9.10;99.90;;;;;;5044211;28;20033;-70
2023/03/19 06:10:01;;;;;;;18.45;13.80;;;9.10;99.90;;;;;;5036972;28;20037;-70
2023/03/19 06:12:29;;;;;;;18.60;12.95;;;9.10;99.90;;;;;;5029331;28;20033;-70
2023/03/19 06:15:01;;;;;;;19.15;12.98;;;9.10;99.90;;;;;;5033459;28;20530;-70
2023/03/19 06:17:28;;;;;;;17.85;13.75;;;9.10;99.90;;;;;;5048919;28;20079;-70
2023/03/19 06:19:54;;;;;;;19.58;14.27;;;9.10;99.90;;;;;;5051048;28;20036;-70
2023/03/19 06:22:23;;;;;;;19.73;13.68;;;9.10;99.90;;;;;;5053181;28;20064;-70
2023/03/19 06:25:01;;;;;;;17.25;12.35;;;9.10;99.90;;;;;;5044340;28;20065;-70
2023/03/19 06:27:27;;;;;;;14.43;11.32;;;9.10;99.90;;;;;;5042885;28;20091;-70
2023/03/19 06:29:53;;;;;;;14.90;10.48;;;9.10;99.90;;;;;;5035731;28;20017;-70
2023/03/19 06:32:18;;;;;;;14.75;10.82;;;9.20;99.90;;;;;;5048346;28;20036;-70
2023/03/19 06:34:44;;;;;;;16.08;11.05;;;9.20;99.90;;;;;;5040140;28;20113;-70
2023/03/19 06:37:11;;;;;;;19.10;13.13;;;9.20;99.90;;;;;;5035426;28;20021;-70
2023/03/19 06:39:37;;;;;;;21.42;15.25;;;9.30;99.90;;;;;;5053201;28;20382;-70
2023/03/19 06:42:03;;;;;;;16.27;12.85;;;9.30;99.90;;;;;;5054295;28;20223;-70
2023/03/19 06:44:29;;;;;;;19.60;13.20;;;9.30;99.90;;;;;;5040459;28;20014;-70
2023/03/19 06:46:55;;;;;;;21.25;15.40;;;9.40;99.90;;;;;;5054542;28;20032;-70
2023/03/19 06:49:20;;;;;;;18.35;13.23;;;9.40;99.90;;;;;;5055465;28;20741;-70
2023/03/19 06:51:46;;;;;;;15.00;11.77;;;9.50;99.90;;;;;;5046820;28;20040;-69
2023/03/19 06:54:12;;;;;;;20.17;13.80;;;9.50;99.90;;;;;;5042177;28;20041;-70
2023/03/19 06:56:38;;;;;;;19.98;15.20;;;9.50;99.90;;;;;;5031868;28;20120;-70
2023/03/19 06:59:11;;;;;;;21.23;15.55;;;9.50;99.90;;;;;;5043044;28;20500;-70
2023/03/19 07:01:46;;;;;;;21.08;13.57;;;9.60;99.90;;;;;;5042408;28;20040;-70
2023/03/19 07:04:18;;;;;;;17.95;11.82;;;9.70;99.90;;;;;;5044001;28;20033;-70
2023/03/19 07:06:49;;;;;;;17.20;12.20;;;;;;;;;;5042730;28;20041;-71
2023/03/19 07:09:16;;;;;;;17.02;11.93;;;;;;;;;;5043212;28;20037;-70
2023/03/19 07:11:47;;;;;;;15.32;10.95;;;;;;;;;;5049288;28;20111;-71
2023/03/19 07:14:19;;;;;;;15.85;11.05;;;;;;;;;;5050668;28;20025;-71
2023/03/19 07:16:51;;;;;;;22.13;10.88;;;;;;;;;;5037556;28;20029;-71
2023/03/19 07:19:22;;;;;;;16.75;10.50;;;;;;;;;;5037312;28;20025;-71
2023/03/19 07:21:51;;;;;;;15.23;9.85;;;;;;;;;;5050277;28;20433;-71
2023/03/19 07:24:24;;;;;;;14.15;9.07;;;;;;;;;;5053725;28;20219;-71
2023/03/19 07:26:52;;;;;;;;;;;;;;;;;;5051164;28;20196;-71
2023/03/19 07:29:19;;;;;;;14.23;9.60;;;;;;;;;;5043690;28;19918;-71
2023/03/19 07:31:50;;;;;;;15.00;9.73;;;;;;;;;;5044338;28;20113;-71
2023/03/19 07:34:20;;;;;;;15.52;9.25;;;;;;;;;;5043490;28;20041;-71
2023/03/19 07:36:52;;;;;;;11.68;8.85;;;;;;;;;;5039446;28;20100;-71
2023/03/19 07:39:23;;;;;;;19.85;10.57;;;;;;;;;;5050670;28;20028;-71
2023/03/19 07:41:55;;;;;;;14.20;10.55;;;;;;;;;;5050645;28;20413;-71
2023/03/19 07:44:25;;;;;;;14.75;11.00;;;;;;;;;;5047779;28;20225;-71
2023/03/19 07:46:56;;;;;;;17.38;10.73;;;;;;;;;;5036851;28;20239;-71
2023/03/19 07:49:23;;;;;;;15.55;10.30;;;;;;;;;;5039464;28;20025;-71
2023/03/19 07:51:52;;;;;;;16.25;10.15;;;;;;;;;;5043304;28;20494;-71
2023/03/19 07:54:24;;;;;;;16.63;9.57;;;;;;;;;;5030377;28;20060;-71
2023/03/19 07:56:55;;;;;;;12.50;9.07;;;;;;;;;;5031247;28;20035;-71
2023/03/19 07:59:27;;;;;;;15.57;9.43;;;;;;;;;;5047626;28;20037;-71
2023/03/19 08:02:01;;;;;;;11.38;8.45;;;;;;;;;;5031272;28;20438;-71
2023/03/19 08:04:29;;;;;;;16.48;13.52;;;;;;;;;;5031156;28;20037;-71
2023/03/19 08:07:01;;;;;;;27.65;21.30;;;;;;;;;;5030537;28;20257;-71
2023/03/19 08:09:31;;;;;;;15.93;13.40;;;;;;;;;;5039831;28;20493;-71
2023/03/19 08:12:08;;;;;;;25.98;18.45;;;;;;;;;;5049479;28;20040;-71
2023/03/19 08:14:39;;;;;;;27.13;20.00;;;;;;;;;;5035351;28;20030;-72
2023/03/19 08:17:11;;;;;;;18.85;12.23;;;;;;;;;;5049332;28;20029;-72
2023/03/19 08:19:40;;;;;;;15.50;10.85;;;;;;;;;;5046510;28;20579;-72
2023/03/19 08:22:12;;;;;;;11.10;8.52;;;;;;;;;;5033710;28;20033;-72
2023/03/19 08:24:41;;;;;;;10.57;8.25;;;;;;;;;;5049800;28;20025;-72
2023/03/19 08:27:13;;;;;;;10.57;8.00;;;;;;;;;;5034576;28;20421;-72
2023/03/19 08:29:43;;;;;;;9.60;7.22;;;;;;;;;;5042657;28;20036;-72
2023/03/19 08:32:16;;;;;;;12.25;7.55;;;;;;;;;;5046986;28;20036;-72
2023/03/19 08:34:46;;;;;;;12.02;7.35;;;;;;;;;;5029819;28;20029;-72
2023/03/19 08:37:19;;;;;;;13.20;7.38;;;;;;;;;;5028818;28;20105;-72
2023/03/19 08:39:56;;;;;;;13.75;7.65;;;;;;;;;;5030260;28;20033;-72
2023/03/19 08:42:31;;;;;;;11.95;7.20;;;;;;;;;;5035223;28;20024;-72
2023/03/19 08:45:00;;;;;;;12.63;7.40;;;;;;;;;;5048155;28;20017;-72
2023/03/19 08:47:31;;;;;;;13.23;7.53;;;;;;;;;;5045748;28;20048;-72
2023/03/19 08:50:00;;;;;;;12.23;7.15;;;;;;;;;;5040568;28;20032;-72
2023/03/19 08:52:30;;;;;;;9.10;6.85;;;;;;;;;;5039509;28;20036;-72
2023/03/19 08:55:01;;;;;;;14.32;8.32;;;;;;;;;;5040165;28;20040;-72
2023/03/19 08:57:35;;;;;;;13.48;9.30;;;;;;;;;;5029241;28;20038;-72
2023/03/19 09:00:06;;;;;;;15.80;9.23;;;;;;;;;;5036623;28;20345;-72
2023/03/19 09:02:35;;;;;;;13.55;8.30;;;;;;;;;;5037954;28;20024;-72
2023/03/19 09:05:06;;;;;;;18.08;9.38;;;;;;;;;;5045213;28;20041;-72
2023/03/19 09:07:37;;;;;;;15.43;9.77;;;;;;;;;;5046049;28;20090;-72
2023/03/19 09:10:04;;;;;;;13.40;8.57;;;;;;;;;;5028543;28;20025;-72
2023/03/19 09:12:36;;;;;;;10.80;7.82;;;;;;;;;;5046850;28;20033;-72
2023/03/19 09:15:03;;;;;;;13.55;7.70;;;;;;;;;;5047676;28;20036;-72
2023/03/19 09:17:34;;;;;;;13.35;7.55;;;;;;;;;;5035799;28;20071;-72
2023/03/19 09:20:02;;;;;;;10.52;6.22;;;;;;;;;;5028830;28;20401;-72
2023/03/19 09:22:32;;;;;;;9.07;5.88;;;;;;;;;;5029007;28;20036;-72
2023/03/19 09:25:01;;;;;;;12.73;6.55;;;;;;;;;;5038916;28;20041;-72
2023/03/19 09:27:34;;;;;;;11.27;6.30;;;;;;;;;;5029991;28;20033;-72
2023/03/19 09:30:05;;;;;;;11.77;6.28;;;;;;;;;;5028654;28;20033;-72
2023/03/19 09:32:40;;;;;;;12.18;6.65;;;;;;;;;;5031020;28;20053;-72
2023/03/19 09:35:09;;;;;;;11.73;6.32;;;;;;;;;;5040827;28;20173;-72
2023/03/19 09:37:39;;;;;;;12.65;6.75;;;;;;;;;;5032666;28;20033;-72
2023/03/19 09:40:08;;;;;;;10.10;6.32;;;;;;;;;;5048169;28;20057;-72
2023/03/19 09:43:01;;;;;;;10.73;6.70;;;;;;;;;;5048041;28;20029;-72
2023/03/19 09:45:35;;;;;;;11.48;6.82;;;;;;;;;;5048638;28;20558;-72
2023/03/19 09:48:08;;;;;;;13.68;6.80;;;;;;;;;;5045103;28;20039;-72
2023/03/19 09:50:36;;;;;;;16.75;8.32;;;;;;;;;;5038301;28;20036;-72
2023/03/19 09:53:21;;;;;;;14.32;6.75;;;;;;;;;;5046013;28;20036;-72
2023/03/19 09:55:55;;;;;;;12.27;6.57;;;;;;;;;;5048397;28;20025;-72
2023/03/19 09:58:33;;;;;;;10.48;6.65;;;;;;;;;;5047902;28;20025;-72
2023/03/19 10:01:05;;;;;;;11.32;6.00;;;;;;;;;;5045241;28;20036;-72
2023/03/19 10:03:43;;;;;;;9.52;5.55;;;;;;;;;;5035206;28;20037;-73
2023/03/19 10:06:28;;;;;;;12.95;5.45;;;;;;;;;;5029087;28;20032;-72
2023/03/19 10:09:16;;;;;;;7.05;4.88;;;;;;;;;;5029940;28;20053;-72
2023/03/19 10:11:56;;;;;;;8.18;4.53;;;;;;;;;;5028446;28;20025;-72
2023/03/19 10:14:54;;;;;;;7.13;4.70;;;;;;;;;;5032933;28;20032;-72
2023/03/19 10:17:51;;;;;;;10.73;5.18;;;;;;;;;;5048041;28;20021;-72
2023/03/19 10:20:36;;;;;;;8.75;4.40;;;;;;;;;;5025470;28;20032;-72
2023/03/19 10:23:07;;;;;;;7.53;4.57;;;;;;;;;;5039412;28;20596;-72
2023/03/19 10:25:38;;;;;;;8.25;4.53;;;;;;;;;;5036818;28;20053;-72
2023/03/19 10:28:15;;;;;;;6.70;4.30;;;;;;;;;;5048219;28;20071;-72
2023/03/19 10:30:50;;;;;;;8.82;4.53;;;;;;;;;;5048318;28;20025;-72
2023/03/19 10:33:23;;;;;;;7.45;4.22;;;;;;;;;;5029872;28;20460;-72
2023/03/19 10:35:52;;;;;;;;;;;;;;;;;;5036449;28;20394;-72
2023/03/19 10:38:32;;;;;;;6.32;3.75;;;;;;;;;;5028582;28;19905;-72
2023/03/19 10:41:04;;;;;;;7.25;4.50;;;;;;;;;;5033030;28;20036;-73
2023/03/19 10:43:33;;;;;;;8.02;3.90;;;;;;;;;;5038848;28;20325;-72
2023/03/19 10:45:59;;;;;;;6.28;4.20;;;;;;;;;;5040158;28;20099;-72
2023/03/19 10:48:29;;;;;;;8.10;3.78;;;;;;;;;;5047612;28;20033;-72
2023/03/19 10:51:08;;;;;;;8.13;3.80;;;;;;;;;;5034823;28;20505;-72
2023/03/19 10:53:41;;;;;;;9.10;4.07;;;;;;;;;;5027649;28;20561;-73
2023/03/19 10:56:28;;;;;;;6.57;4.00;;;;;;;;;;5032921;28;20132;-72
2023/03/19 10:59:06;;;;;;;8.25;4.03;;;;;;;;;;5041073;28;20038;-72
2023/03/19 11:01:41;;;;;;;9.15;4.38;;;;;;;;;;5037776;28;20486;-72
2023/03/19 11:04:19;;;;;;;8.43;4.47;;;16.10;99.90;;;;;;5042465;28;20033;-73
2023/03/19 11:06:55;;;;;;;6.25;3.90;;;16.00;99.90;;;;;;5051099;28;20041;-72
2023/03/19 11:09:41;;;;;;;8.95;4.72;;;15.90;99.90;;;;;;5049400;28;20140;-72
2023/03/19 11:12:36;;;;;;;7.45;3.72;;;15.80;99.90;;;;;;5048682;28;20028;-72
2023/03/19 11:15:20;;;;;;;7.80;3.83;;;15.90;99.90;;;;;;5046170;28;20044;-72
2023/03/19 11:17:57;;;;;;;5.43;3.42;;;15.90;99.90;;;;;;5045317;28;20103;-72
2023/03/19 11:20:39;;;;;;;4.63;3.60;;;15.80;99.90;;;;;;5051748;28;20029;-72
2023/03/19 11:23:20;;;;;;;3.95;3.05;;;15.90;99.90;;;;;;5040751;28;20112;-73
2023/03/19 11:25:55;;;;;;;5.75;3.08;;;16.30;99.90;;;;;;5051158;28;20032;-73
2023/03/19 11:28:32;;;;;;;4.97;3.20;;;16.60;99.90;;;;;;5050569;28;20033;-72
2023/03/19 11:31:18;;;;;;;6.97;2.88;;;16.90;99.90;;;;;;5042777;28;20537;-73
2023/03/19 11:34:17;;;;;;;5.50;3.00;;;17.30;99.90;;;;;;5036695;28;20143;-72
2023/03/19 11:37:21;;;;;;;3.17;1.80;;;17.60;99.90;;;;;;5046522;28;20506;-72
2023/03/19 11:40:00;;;;;;;;;;;17.50;99.90;;;;;;5051419;28;20109;-72
2023/03/19 11:42:39;;;;;;;3.80;1.90;;;17.40;99.90;;;;;;5049109;28;20266;-72
2023/03/19 11:45:31;;;;;;;4.30;2.58;;;17.30;99.90;;;;;;5049351;28;20025;-72
2023/03/19 11:48:22;;;;;;;3.67;2.22;;;17.10;99.90;;;;;;5031038;28;20037;-72
2023/03/19 11:51:06;;;;;;;5.55;2.15;;;16.80;99.90;;;;;;5030861;28;20043;-72
2023/03/19 11:54:07;;;;;;;5.10;2.70;;;16.50;99.90;;;;;;5030087;28;20038;-72
2023/03/19 11:57:10;;;;;;;3.13;1.98;;;16.30;99.90;;;;;;5037337;28;20025;-72
2023/03/19 12:00:17;;;;;;;2.75;1.60;;;16.10;99.90;;;;;;5050727;28;20044;-72
2023/03/19 12:03:01;;;;;;;2.63;1.40;;;16.00;99.90;;;;;;5030867;28;20041;-72
2023/03/19 12:05:47;;;;;;;3.08;1.60;;;16.20;99.90;;;;;;5042099;28;20444;-72
2023/03/19 12:08:22;;;;;;;4.03;1.73;;;16.30;99.90;;;;;;5033156;28;20461;-72
2023/03/19 12:11:04;;;;;;;3.05;1.48;;;16.40;99.90;;;;;;5030375;28;20033;-72
2023/03/19 12:14:00;;;;;;;5.32;1.30;;;16.50;99.90;;;;;;5047474;28;20013;-72
2023/03/19 12:16:54;;;;;;;3.22;1.00;;;16.70;99.90;;;;;;5042548;28;20442;-72
2023/03/19 12:19:53;;;;;;;2.15;1.10;;;16.90;99.90;;;;;;5039431;28;20536;-72
2023/03/19 12:22:46;;;;;;;1.05;0.68;;;16.90;99.90;;;;;;5049960;28;20053;-72
2023/03/19 12:25:36;;;;;;;3.58;2.30;;;16.60;99.90;;;;;;5033360;28;20385;-72
2023/03/19 12:28:35;;;;;;;5.57;2.00;;;16.30;99.90;;;;;;5030010;28;20128;-72
2023/03/19 12:31:40;;;;;;;3.92;1.20;;;16.00;99.90;;;;;;5040462;28;20032;-72
2023/03/19 12:34:35;;;;;;;2.50;1.10;;;15.80;99.90;;;;;;5040439;28;20462;-72
2023/03/19 12:37:20;;;;;;;2.83;1.23;;;15.70;99.90;;;;;;5043275;28;20048;-72
2023/03/19 12:39:54;;;;;;;2.10;1.15;;;15.50;99.90;;;;;;5050099;28;20056;-72
2023/03/19 12:42:24;;;;;;;1.40;1.20;;;;;;;;;;5040043;28;20032;-72
2023/03/19 12:44:54;;;;;;;3.05;1.20;;;;;;;;;;5049537;28;20025;-72
2023/03/19 12:47:37;;;;;;;1.17;0.80;;;16.10;99.90;;;;;;5040512;28;20497;-72
2023/03/19 12:50:12;;;;;;;1.70;0.90;;;;;;;;;;5038588;28;20038;-72
2023/03/19 12:52:48;;;;;;;3.15;0.80;;;16.30;99.90;;;;;;5035584;28;20108;-72
2023/03/19 12:55:37;;;;;;;1.73;0.75;;;16.40;99.90;;;;;;5049481;28;20103;-72
2023/03/19 12:58:31;;;;;;;2.38;0.73;;;16.60;99.90;;;;;;5041759;28;20030;-72
2023/03/19 13:01:07;;;;;;;2.83;1.40;;;16.90;99.90;;;;;;5042645;28;20036;-72
2023/03/19 13:03:53;;;;;;;1.58;0.90;;;17.20;99.90;;;;;;5049134;28;20025;-72
2023/03/19 13:06:26;;;;;;;3.35;1.45;;;17.50;99.90;;;;;;5041186;28;20557;-72
2023/03/19 13:09:19;;;;;;;2.25;1.30;;;17.60;99.90;;;;;;5029221;28;20405;-72
2023/03/19 13:11:58;;;;;;;1.13;0.50;;;17.80;99.90;;;;;;5039809;28;20022;-72
2023/03/19 13:14:47;;;;;;;1.85;0.80;;;18.00;99.90;;;;;;5045094;28;20033;-72
2023/03/19 13:17:29;;;;;;;3.92;0.60;;;18.00;99.90;;;;;;5036986;28;20048;-72
2023/03/19 13:20:10;;;;;;;1.80;0.70;;;18.10;99.90;;;;;;5030653;28;20037;-72
2023/03/19 13:22:46;;;;;;;0.80;0.60;;;17.90;99.90;;;;;;5032807;28;20279;-72
2023/03/19 13:25:17;;;;;;;2.30;0.65;;;17.70;99.90;;;;;;5037952;28;20025;-72
2023/03/19 13:27:53;;;;;;;0.93;0.60;;;17.60;99.90;;;;;;5048858;28;20036;-72
2023/03/19 13:30:21;;;;;;;2.22;0.65;;;17.50;99.90;;;;;;5047624;28;20033;-72
2023/03/19 13:33:05;;;;;;;2.55;0.88;;;17.20;99.90;;;;;;5029583;28;20025;-72
2023/03/19 13:35:45;;;;;;;1.05;0.60;;;17.10;99.90;;;;;;5034811;28;20438;-72
2023/03/19 13:38:26;;;;;;;1.23;0.60;;;17.10;99.90;;;;;;5048537;28;20029;-72
2023/03/19 13:40:59;;;;;;;3.08;0.60;;;17.30;99.90;;;;;;5029268;28;20112;-72
2023/03/19 13:43:34;;;;;;;2.03;0.60;;;17.50;99.90;;;;;;5039294;28;20486;-72
2023/03/19 13:46:12;;;;;;;3.08;0.80;;;17.60;99.90;;;;;;5041804;28;20037;-72
2023/03/19 13:48:53;;;;;;;1.40;0.60;;;17.60;99.90;;;;;;5044512;28;20040;-72
2023/03/19 13:51:32;;;;;;;1.23;0.70;;;17.50;99.90;;;;;;5035556;28;20037;-72
2023/03/19 13:54:16;;;;;;;2.05;1.00;;;17.20;99.90;;;;;;5047944;28;20049;-72